createdAt,value
2022-10-09T00:01:26.426Z,101841.94
2022-10-09T00:03:55.269Z,101841.22
2022-10-09T00:06:24.466Z,101846.69
2022-10-09T00:08:50.905Z,101843.28
2022-10-09T00:11:20.138Z,101855.94
2022-10-09T00:13:48.541Z,101853.50
2022-10-09T00:16:17.484Z,101851.06
2022-10-09T00:18:45.145Z,101850.47
2022-10-09T00:21:32.275Z,101848.03
2022-10-09T00:24:01.095Z,101851.81
2022-10-09T00:26:28.162Z,101850.22
2022-10-09T00:28:55.212Z,101858.50
2022-10-09T00:31:22.681Z,101854.25
2022-10-09T00:33:49.535Z,101851.78
2022-10-09T00:36:19.642Z,101858.13
2022-10-09T00:38:46.101Z,101860.19
2022-10-09T00:41:19.270Z,101854.94
2022-10-09T00:43:55.456Z,101852.50
2022-10-09T00:46:35.113Z,101860.66
2022-10-09T00:49:39.869Z,101860.88
2022-10-09T00:52:07.438Z,101863.69
2022-10-09T00:54:37.286Z,101863.91
2022-10-09T00:57:03.866Z,101860.53
2022-10-09T00:59:31.259Z,101861.63
2022-10-09T01:01:57.753Z,101862.69
2022-10-09T01:04:24.245Z,101868.16
2022-10-09T01:07:18.307Z,101879.84
2022-10-09T01:12:43.916Z,101879.22
2022-10-09T01:15:26.877Z,101878.50
2022-10-09T01:18:16.885Z,101870.66
2022-10-09T01:24:13.355Z,101862.88
2022-10-09T01:26:45.695Z,101863.13
2022-10-09T01:29:15.283Z,101867.72
2022-10-09T01:31:45.964Z,101857.28
2022-10-09T01:34:14.572Z,101860.19
2022-10-09T01:36:43.211Z,101858.50
2022-10-09T01:39:16.782Z,101854.09
2022-10-09T01:41:43.619Z,101857.00
2022-10-09T01:44:18.414Z,101858.94
2022-10-09T01:46:45.089Z,101860.84
2022-10-09T01:49:28.996Z,101856.50
2022-10-09T01:52:16.499Z,101868.16
2022-10-09T01:54:50.128Z,101859.41
2022-10-09T01:57:23.799Z,101860.47
2022-10-09T01:59:52.396Z,101854.38
2022-10-09T02:02:20.425Z,101854.53
2022-10-09T02:04:49.563Z,101852.69
2022-10-09T02:07:17.446Z,101844.91
2022-10-09T02:09:45.756Z,101843.19
2022-10-09T02:12:14.119Z,101847.66
2022-10-09T02:14:40.777Z,101840.63
2022-10-09T02:17:17.025Z,101837.19
2022-10-09T02:19:48.606Z,101834.53
2022-10-09T02:22:16.375Z,101841.78
2022-10-09T02:24:44.427Z,101837.44
2022-10-09T02:27:13.145Z,101841.06
2022-10-09T02:29:44.746Z,101832.19
2022-10-09T02:32:12.183Z,101836.78
2022-10-09T02:34:39.183Z,101843.09
2022-10-09T02:37:06.569Z,101835.94
2022-10-09T02:39:32.926Z,101836.16
2022-10-09T02:41:59.307Z,101845.16
2022-10-09T02:44:25.728Z,101840.78
2022-10-09T02:46:52.134Z,101841.75
2022-10-09T02:49:18.659Z,101843.69
2022-10-09T02:51:45.284Z,101841.09
2022-10-09T02:54:11.742Z,101829.56
2022-10-09T02:56:39.268Z,101835.16
2022-10-09T02:59:06.254Z,101844.16
2022-10-09T03:01:32.634Z,101837.06
2022-10-09T03:03:59.334Z,101841.56
2022-10-09T03:06:27.294Z,101830.13
2022-10-09T03:08:54.501Z,101834.63
2022-10-09T03:11:22.903Z,101830.25
2022-10-09T03:13:49.634Z,101834.75
2022-10-09T03:16:18.727Z,101834.88
2022-10-09T03:18:45.843Z,101835.84
2022-10-09T03:21:14.845Z,101834.88
2022-10-09T03:23:42.721Z,101830.50
2022-10-09T03:26:12.127Z,101832.28
2022-10-09T03:28:40.718Z,101834.97
2022-10-09T03:31:07.711Z,101829.75
2022-10-09T03:33:35.580Z,101830.69
2022-10-09T03:36:02.548Z,101834.34
2022-10-09T03:38:28.984Z,101835.31
2022-10-09T03:40:55.350Z,101830.94
2022-10-09T03:43:21.718Z,101832.84
2022-10-09T03:45:48.043Z,101827.50
2022-10-09T03:48:14.971Z,101831.25
2022-10-09T03:50:42.012Z,101832.22
2022-10-09T03:53:10.640Z,101836.72
2022-10-09T03:55:37.251Z,101833.22
2022-10-09T03:58:03.943Z,101834.28
2022-10-09T04:00:30.522Z,101834.28
2022-10-09T04:02:57.030Z,101829.03
2022-10-09T04:05:23.568Z,101835.22
2022-10-09T04:07:50.079Z,101837.19
2022-10-09T04:10:16.895Z,101833.63
2022-10-09T04:12:43.479Z,101844.31
2022-10-09T04:15:10.314Z,101842.53
2022-10-09T04:20:05.974Z,101833.78
2022-10-09T04:22:32.424Z,101845.31
2022-10-09T04:24:58.751Z,101841.78
2022-10-09T04:27:25.274Z,101840.94
2022-10-09T04:29:51.670Z,101838.25
2022-10-09T04:32:18.056Z,101835.59
2022-10-09T04:34:44.447Z,101841.03
2022-10-09T04:37:10.766Z,101837.53
2022-10-09T04:39:37.111Z,101834.94
2022-10-09T04:42:03.662Z,101834.19
2022-10-09T04:44:29.984Z,101839.66
2022-10-09T04:46:56.317Z,101836.38
2022-10-09T04:49:22.651Z,101838.16
2022-10-09T04:51:49.068Z,101835.72
2022-10-09T04:54:15.432Z,101838.53
2022-10-09T04:56:41.749Z,101841.28
2022-10-09T04:59:08.111Z,101838.72
2022-10-09T05:01:38.330Z,101852.31
2022-10-09T05:04:05.238Z,101840.88
2022-10-09T05:06:31.599Z,101849.09
2022-10-09T05:08:58.029Z,101845.72
2022-10-09T05:11:25.487Z,101847.63
2022-10-09T05:13:56.178Z,101847.72
2022-10-09T05:16:26.463Z,101845.28
2022-10-09T05:18:57.282Z,101850.72
2022-10-09T05:21:24.572Z,101847.31
2022-10-09T05:23:52.909Z,101850.19
2022-10-09T05:26:21.269Z,101850.31
2022-10-09T05:28:48.658Z,101855.88
2022-10-09T05:31:27.245Z,101852.44
2022-10-09T05:33:54.902Z,101854.28
2022-10-09T05:36:21.491Z,101849.03
2022-10-09T05:38:48.402Z,101856.19
2022-10-09T05:41:17.360Z,101855.22
2022-10-09T05:43:45.679Z,101845.41
2022-10-09T05:46:15.026Z,101844.34
2022-10-09T05:48:43.827Z,101844.13
2022-10-09T05:51:13.861Z,101844.97
2022-10-09T05:53:41.437Z,101841.25
2022-10-09T05:56:17.997Z,101844.53
2022-10-09T05:58:49.276Z,101847.84
2022-10-09T06:01:16.247Z,101847.63
2022-10-09T06:03:42.714Z,101844.72
2022-10-09T06:06:09.283Z,101837.34
2022-10-09T06:08:37.791Z,101841.53
2022-10-09T06:11:15.960Z,101836.78
2022-10-09T06:13:43.614Z,101843.63
2022-10-09T06:16:11.734Z,101840.75
2022-10-09T06:18:39.486Z,101839.53
2022-10-09T06:21:06.522Z,101837.38
2022-10-09T06:23:33.723Z,101840.56
2022-10-09T06:26:02.443Z,101838.44
2022-10-09T06:28:30.030Z,101841.63
2022-10-09T06:31:05.028Z,101838.50
2022-10-09T06:33:33.042Z,101847.06
2022-10-09T06:36:09.987Z,101843.06
2022-10-09T06:38:37.872Z,101845.38
2022-10-09T06:41:06.495Z,101851.22
2022-10-09T06:43:33.198Z,101849.06
2022-10-09T06:46:04.746Z,101849.59
2022-10-09T06:48:32.496Z,101859.00
2022-10-09T06:51:07.291Z,101851.38
2022-10-09T06:53:44.014Z,101853.59
2022-10-09T06:56:11.522Z,101858.50
2022-10-09T06:58:39.277Z,101851.81
2022-10-09T07:01:08.465Z,101858.38
2022-10-09T07:03:36.172Z,101866.81
2022-10-09T07:06:11.325Z,101860.88
2022-10-09T07:08:39.435Z,101863.81
2022-10-09T07:11:13.060Z,101869.41
2022-10-09T07:13:41.021Z,101868.09
2022-10-09T07:16:07.622Z,101864.81
2022-10-09T07:18:35.214Z,101869.56
2022-10-09T07:21:07.475Z,101871.53
2022-10-09T07:23:35.176Z,101869.22
2022-10-09T07:26:07.835Z,101867.63
2022-10-09T07:28:34.196Z,101881.25
2022-10-09T07:31:05.792Z,101875.19
2022-10-09T07:33:32.560Z,101868.47
2022-10-09T07:36:00.898Z,101865.91
2022-10-09T07:38:27.927Z,101865.31
2022-10-09T07:40:56.462Z,101868.22
2022-10-09T07:43:22.784Z,101866.59
2022-10-09T07:45:49.138Z,101864.13
2022-10-09T07:48:15.512Z,101874.97
2022-10-09T07:50:41.935Z,101881.44
2022-10-09T07:53:08.762Z,101877.16
2022-10-09T07:55:35.883Z,101875.53
2022-10-09T07:58:02.467Z,101878.41
2022-10-09T08:00:28.801Z,101881.31
2022-10-09T08:02:55.601Z,101877.13
2022-10-09T08:05:21.989Z,101877.44
2022-10-09T08:07:48.397Z,101883.88
2022-10-09T08:10:15.156Z,101872.50
2022-10-09T08:12:41.511Z,101873.66
2022-10-09T08:15:08.422Z,101874.00
2022-10-09T08:17:34.931Z,101875.03
2022-10-09T08:20:01.312Z,101876.19
2022-10-09T08:22:27.703Z,101867.59
2022-10-09T08:24:54.205Z,101856.19
2022-10-09T08:27:20.526Z,101865.41
2022-10-09T08:29:46.931Z,101856.69
2022-10-09T08:32:13.391Z,101857.81
2022-10-09T08:34:39.725Z,101853.59
2022-10-09T08:37:06.342Z,101853.78
2022-10-09T08:39:32.823Z,101844.09
2022-10-09T08:42:03.878Z,101847.78
2022-10-09T08:44:46.318Z,101844.13
2022-10-09T08:47:21.839Z,101840.72
2022-10-09T08:50:10.969Z,101849.50
2022-10-09T08:52:52.979Z,101845.00
2022-10-09T08:55:40.183Z,101845.84
2022-10-09T08:58:07.148Z,101842.44
2022-10-09T09:00:52.022Z,101844.97
2022-10-09T09:03:37.786Z,101836.19
2022-10-09T09:06:20.118Z,101828.94
2022-10-09T09:09:02.035Z,101832.63
2022-10-09T09:11:47.365Z,101829.19
2022-10-09T09:14:40.079Z,101830.88
2022-10-09T09:17:32.439Z,101834.53
2022-10-09T09:20:07.712Z,101825.47
2022-10-09T09:22:34.675Z,101828.41
2022-10-09T09:25:07.646Z,101825.81
2022-10-09T09:27:39.464Z,101824.63
2022-10-09T09:30:12.117Z,101821.06
2022-10-09T09:32:43.662Z,101821.81
2022-10-09T09:35:28.245Z,101810.84
2022-10-09T09:37:54.716Z,101806.38
2022-10-09T09:40:36.770Z,101812.41
2022-10-09T09:43:13.501Z,101805.06
2022-10-09T09:45:39.944Z,101803.00
2022-10-09T09:48:11.000Z,101795.50
2022-10-09T09:50:50.490Z,101793.03
2022-10-09T09:53:39.896Z,101789.59
2022-10-09T09:56:07.060Z,101784.56
2022-10-09T09:58:39.217Z,101785.59
2022-10-09T10:01:07.232Z,101778.75
2022-10-09T10:03:49.645Z,101774.25
2022-10-09T10:06:30.903Z,101762.47
2022-10-09T10:08:58.551Z,101752.72
2022-10-09T10:11:25.141Z,101759.19
2022-10-09T10:13:51.516Z,101748.25
2022-10-09T10:16:26.871Z,101746.44
2022-10-09T10:18:55.429Z,101749.16
2022-10-09T10:21:22.407Z,101735.69
2022-10-09T10:23:58.823Z,101741.78
2022-10-09T10:26:31.510Z,101739.09
2022-10-09T10:29:04.313Z,101732.03
2022-10-09T10:31:52.728Z,101735.47
2022-10-09T10:34:29.606Z,101731.75
2022-10-09T10:37:15.940Z,101726.34
2022-10-09T10:40:01.287Z,101726.19
2022-10-09T10:42:44.443Z,101722.16
2022-10-09T10:45:22.695Z,101725.50
2022-10-09T10:47:53.312Z,101727.38
2022-10-09T10:50:20.523Z,101718.25
2022-10-09T10:53:10.937Z,101715.16
2022-10-09T10:56:04.916Z,101709.38
2022-10-09T10:58:46.928Z,101710.03
2022-10-09T11:01:57.810Z,101698.00
2022-10-09T11:04:30.306Z,101702.56
2022-10-09T11:07:07.931Z,101695.44
2022-10-09T11:09:54.942Z,101688.09
2022-10-09T11:12:47.800Z,101679.91
2022-10-09T11:15:30.844Z,101679.72
2022-10-09T11:18:16.118Z,101676.94
2022-10-09T11:20:54.688Z,101665.22
2022-10-09T11:23:39.774Z,101667.03
2022-10-09T11:26:43.502Z,101664.25
2022-10-09T11:29:23.478Z,101657.94
2022-10-09T11:31:56.105Z,101649.94
2022-10-09T11:34:32.415Z,101641.91
2022-10-09T11:37:01.228Z,101646.63
2022-10-09T11:39:32.362Z,101644.03
2022-10-09T11:42:00.498Z,101634.50
2022-10-09T11:44:47.413Z,101630.88
2022-10-09T11:47:21.574Z,101634.72
2022-10-09T11:50:21.602Z,101617.66
2022-10-09T11:53:03.199Z,101614.03
2022-10-09T11:55:32.476Z,101614.50
2022-10-09T11:58:18.593Z,101603.91
2022-10-09T12:00:46.845Z,101602.53
2022-10-09T12:03:27.194Z,101595.50
2022-10-09T12:06:07.140Z,101588.47
2022-10-09T12:08:34.227Z,101588.75
2022-10-09T12:11:10.382Z,101584.41
2022-10-09T12:13:51.186Z,101567.72
2022-10-09T12:16:38.231Z,101567.00
2022-10-09T12:19:27.575Z,101563.69
2022-10-09T12:21:56.865Z,101564.38
2022-10-09T12:24:27.484Z,101562.97
2022-10-09T12:26:59.215Z,101557.16
2022-10-09T12:29:34.099Z,101553.00
2022-10-09T12:32:05.298Z,101556.00
2022-10-09T12:34:37.129Z,101553.94
2022-10-09T12:37:17.780Z,101555.25
2022-10-09T12:39:45.012Z,101545.19
2022-10-09T12:45:00.999Z,101528.94
2022-10-09T12:47:29.934Z,101534.00
2022-10-09T12:50:27.393Z,101529.03
2022-10-09T12:52:57.447Z,101527.13
2022-10-09T12:55:36.200Z,101520.69
2022-10-09T12:58:06.692Z,101515.88
2022-10-09T13:00:33.876Z,101502.25
2022-10-09T13:03:01.345Z,101506.69
2022-10-09T13:05:38.996Z,101495.41
2022-10-09T13:08:15.363Z,101487.69
2022-10-09T13:10:41.752Z,101477.28
2022-10-09T13:13:19.851Z,101484.00
2022-10-09T13:15:46.274Z,101471.03
2022-10-09T13:18:21.038Z,101479.84
2022-10-09T13:21:17.797Z,101474.19
2022-10-09T13:23:44.151Z,101471.47
2022-10-09T13:26:23.274Z,101459.75
2022-10-09T13:28:49.872Z,101452.66
2022-10-09T13:31:18.378Z,101442.78
2022-10-09T13:33:45.602Z,101441.75
2022-10-09T13:36:13.141Z,101443.63
2022-10-09T13:38:39.800Z,101439.88
2022-10-09T13:41:06.133Z,101437.16
2022-10-09T13:43:32.899Z,101430.88
2022-10-09T13:45:59.367Z,101431.72
2022-10-09T13:48:25.867Z,101430.88
2022-10-09T13:50:52.385Z,101426.28
2022-10-09T13:53:18.732Z,101416.22
2022-10-09T13:55:45.081Z,101407.00
2022-10-09T13:58:11.463Z,101403.28
2022-10-09T14:00:37.815Z,101402.88
2022-10-09T14:03:04.760Z,101404.53
2022-10-09T14:05:31.281Z,101397.03
2022-10-09T14:07:58.003Z,101391.41
2022-10-09T14:10:24.354Z,101385.72
2022-10-09T14:12:51.613Z,101387.44
2022-10-09T14:15:18.790Z,101386.59
2022-10-09T14:17:45.471Z,101369.41
2022-10-09T14:20:11.926Z,101368.56
2022-10-09T14:22:38.532Z,101367.75
2022-10-09T14:25:05.291Z,101366.06
2022-10-09T14:27:31.782Z,101367.09
2022-10-09T14:29:58.118Z,101353.47
2022-10-09T14:32:24.545Z,101351.81
2022-10-09T14:34:50.879Z,101345.53
2022-10-09T14:37:24.069Z,101339.44
2022-10-09T14:40:03.819Z,101339.88
2022-10-09T14:42:30.111Z,101324.19
2022-10-09T14:44:56.446Z,101327.31
2022-10-09T14:47:22.827Z,101324.13
2022-10-09T14:49:49.317Z,101318.28
2022-10-09T14:52:15.669Z,101317.63
2022-10-09T14:54:42.052Z,101309.88
2022-10-09T14:57:08.414Z,101306.50
2022-10-09T14:59:34.734Z,101301.06
2022-10-09T15:02:01.304Z,101296.84
2022-10-09T15:04:27.665Z,101293.31
2022-10-09T15:06:54.403Z,101292.66
2022-10-09T15:09:27.130Z,101294.75
2022-10-09T15:11:53.946Z,101292.41
2022-10-09T15:14:20.562Z,101294.72
2022-10-09T15:16:49.599Z,101294.28
2022-10-09T15:19:16.543Z,101281.91
2022-10-09T15:21:43.048Z,101289.44
2022-10-09T15:24:12.485Z,101273.28
2022-10-09T15:26:42.384Z,101277.25
2022-10-09T15:29:09.402Z,101273.03
2022-10-09T15:31:41.041Z,101274.09
2022-10-09T15:34:10.435Z,101264.47
2022-10-09T15:36:39.807Z,101256.53
2022-10-09T15:39:07.824Z,101258.59
2022-10-09T15:41:37.086Z,101251.66
2022-10-09T15:44:07.592Z,101253.56
2022-10-09T15:46:33.933Z,101252.06
2022-10-09T15:49:00.355Z,101247.66
2022-10-09T15:51:26.919Z,101248.06
2022-10-09T15:53:53.284Z,101240.09
2022-10-09T15:56:24.360Z,101227.53
2022-10-09T15:58:51.790Z,101229.00
2022-10-09T16:01:19.030Z,101227.50
2022-10-09T16:03:45.704Z,101224.13
2022-10-09T16:06:14.996Z,101228.91
2022-10-09T16:08:41.719Z,101219.44
2022-10-09T16:11:10.654Z,101220.50
2022-10-09T16:13:39.477Z,101214.63
2022-10-09T16:16:08.336Z,101218.59
2022-10-09T16:18:35.182Z,101212.69
2022-10-09T16:21:16.482Z,101211.03
2022-10-09T16:23:43.975Z,101205.34
2022-10-09T16:26:13.677Z,101208.44
2022-10-09T16:28:40.091Z,101207.97
2022-10-09T16:31:06.522Z,101205.88
2022-10-09T16:33:32.960Z,101196.66
2022-10-09T16:36:12.656Z,101207.03
2022-10-09T16:38:40.683Z,101202.41
2022-10-09T16:41:09.062Z,101195.22
2022-10-09T16:43:36.773Z,101203.50
2022-10-09T16:46:19.409Z,101197.56
2022-10-09T16:48:46.921Z,101198.75
2022-10-09T16:51:16.733Z,101193.59
2022-10-09T16:53:43.226Z,101194.94
2022-10-09T16:56:12.573Z,101196.06
2022-10-09T16:58:40.557Z,101195.75
2022-10-09T17:01:09.832Z,101196.03
2022-10-09T17:03:40.527Z,101196.31
2022-10-09T17:06:16.217Z,101196.63
2022-10-09T17:08:42.628Z,101199.63
2022-10-09T17:11:10.699Z,101197.41
2022-10-09T17:13:37.310Z,101202.91
2022-10-09T17:16:17.793Z,101188.78
2022-10-09T17:18:45.844Z,101193.59
2022-10-09T17:21:13.420Z,101195.56
2022-10-09T17:23:39.961Z,101186.66
2022-10-09T17:26:18.157Z,101192.00
2022-10-09T17:28:45.872Z,101184.13
2022-10-09T17:31:14.500Z,101188.56
2022-10-09T17:33:42.910Z,101184.06
2022-10-09T17:36:10.279Z,101186.69
2022-10-09T17:38:37.274Z,101181.13
2022-10-09T17:41:10.742Z,101181.88
2022-10-09T17:43:37.870Z,101180.91
2022-10-09T17:46:04.797Z,101176.22
2022-10-09T17:48:33.852Z,101172.38
2022-10-09T17:51:03.507Z,101173.94
2022-10-09T17:53:30.567Z,101185.47
2022-10-09T17:56:01.525Z,101174.31
2022-10-09T17:58:27.863Z,101168.59
2022-10-09T18:00:54.357Z,101166.44
2022-10-09T18:03:20.746Z,101165.09
2022-10-09T18:05:49.235Z,101166.50
2022-10-09T18:08:17.820Z,101161.63
2022-10-09T18:10:44.351Z,101162.97
2022-10-09T18:13:11.495Z,101163.53
2022-10-09T18:15:40.987Z,101160.31
2022-10-09T18:18:07.999Z,101155.44
2022-10-09T18:20:36.092Z,101147.69
2022-10-09T18:23:02.913Z,101151.78
2022-10-09T18:25:29.375Z,101148.56
2022-10-09T18:27:55.904Z,101151.81
2022-10-09T18:30:22.495Z,101142.38
2022-10-09T18:32:49.345Z,101147.28
2022-10-09T18:35:15.875Z,101144.06
2022-10-09T18:37:42.239Z,101140.06
2022-10-09T18:40:08.815Z,101137.88
2022-10-09T18:42:35.701Z,101134.69
2022-10-09T18:45:02.742Z,101126.28
2022-10-09T18:47:33.446Z,101136.41
2022-10-09T18:50:02.663Z,101131.69
2022-10-09T18:52:30.037Z,101137.44
2022-10-09T18:54:58.379Z,101129.69
2022-10-09T18:57:26.014Z,101127.53
2022-10-09T18:59:54.262Z,101130.72
2022-10-09T19:02:22.223Z,101128.38
2022-10-09T19:04:48.575Z,101125.13
2022-10-09T19:07:14.912Z,101117.53
2022-10-09T19:09:41.256Z,101126.19
2022-10-09T19:12:07.664Z,101128.38
2022-10-09T19:14:35.527Z,101127.03
2022-10-09T19:17:02.306Z,101122.97
2022-10-09T19:19:29.802Z,101119.78
2022-10-09T19:21:58.027Z,101117.44
2022-10-09T19:24:24.491Z,101119.63
2022-10-09T19:26:50.902Z,101110.19
2022-10-09T19:29:17.295Z,101110.56
2022-10-09T19:31:43.667Z,101109.38
2022-10-09T19:34:11.337Z,101107.00
2022-10-09T19:36:37.736Z,101112.06
2022-10-09T19:39:05.266Z,101112.41
2022-10-09T19:41:31.760Z,101112.94
2022-10-09T19:43:59.574Z,101121.34
2022-10-09T19:46:26.499Z,101114.59
2022-10-09T19:48:53.202Z,101114.09
2022-10-09T19:51:26.367Z,101113.59
2022-10-09T19:53:53.489Z,101112.41
2022-10-09T19:56:23.209Z,101115.59
2022-10-09T19:58:50.260Z,101116.28
2022-10-09T20:01:19.929Z,101117.59
2022-10-09T20:03:46.956Z,101115.59
2022-10-09T20:06:13.462Z,101106.47
2022-10-09T20:08:42.071Z,101111.38
2022-10-09T20:11:11.269Z,101103.94
2022-10-09T20:13:39.431Z,101107.97
2022-10-09T20:16:08.736Z,101106.75
2022-10-09T20:18:35.360Z,101111.78
2022-10-09T20:21:01.675Z,101099.63
2022-10-09T20:23:28.015Z,101104.53
2022-10-09T20:26:03.182Z,101097.75
2022-10-09T20:28:34.088Z,101094.41
2022-10-09T20:31:06.254Z,101093.88
2022-10-09T20:33:33.766Z,101086.13
2022-10-09T20:36:00.670Z,101086.47
2022-10-09T20:38:27.082Z,101091.16
2022-10-09T20:40:53.614Z,101089.63
2022-10-09T20:43:20.241Z,101082.72
2022-10-09T20:45:47.036Z,101083.91
2022-10-09T20:48:13.396Z,101082.22
2022-10-09T20:50:41.779Z,101074.28
2022-10-09T20:53:12.127Z,101070.94
2022-10-09T20:55:38.470Z,101065.72
2022-10-09T20:58:05.005Z,101064.19
2022-10-09T21:00:31.380Z,101061.66
2022-10-09T21:02:57.915Z,101063.50
2022-10-09T21:05:24.262Z,101058.13
2022-10-09T21:07:50.803Z,101055.59
2022-10-09T21:10:17.150Z,101052.03
2022-10-09T21:12:43.491Z,101061.13
2022-10-09T21:15:10.386Z,101055.75
2022-10-09T21:17:36.720Z,101059.47
2022-10-09T21:20:03.131Z,101048.00
2022-10-09T21:22:29.592Z,101050.69
2022-10-09T21:24:55.967Z,101053.38
2022-10-09T21:27:22.305Z,101050.69
2022-10-09T21:29:48.647Z,101052.72
2022-10-09T21:32:15.071Z,101042.78
2022-10-09T21:34:41.402Z,101038.56
2022-10-09T21:37:21.848Z,101038.56
2022-10-09T21:39:48.886Z,101044.97
2022-10-09T21:42:15.237Z,101044.28
2022-10-09T21:44:41.662Z,101037.38
2022-10-09T21:47:14.841Z,101039.22
2022-10-09T21:49:41.723Z,101040.38
2022-10-09T21:52:09.253Z,101035.34
2022-10-09T21:54:35.611Z,101037.34
2022-10-09T21:57:02.018Z,101032.09
2022-10-09T21:59:28.610Z,101033.44
2022-10-09T22:01:54.977Z,101021.00
2022-10-09T22:04:21.409Z,101016.94
2022-10-09T22:06:47.819Z,101017.09
2022-10-09T22:09:14.172Z,101020.09
2022-10-09T22:11:40.518Z,101013.19
2022-10-09T22:14:07.310Z,101018.91
2022-10-09T22:16:33.655Z,101011.00
2022-10-09T22:19:01.187Z,101000.56
2022-10-09T22:21:27.697Z,101000.03
2022-10-09T22:23:54.056Z,101002.88
2022-10-09T22:26:22.469Z,101009.41
2022-10-09T22:28:49.713Z,100990.09
2022-10-09T22:31:22.349Z,100984.00
2022-10-09T22:34:00.999Z,100987.88
2022-10-09T22:36:29.951Z,100983.81
2022-10-09T22:38:57.856Z,100986.66
2022-10-09T22:41:27.086Z,100979.75
2022-10-09T22:43:56.416Z,100973.53
2022-10-09T22:46:25.825Z,100970.34
2022-10-09T22:48:52.468Z,100975.03
2022-10-09T22:51:21.105Z,100969.81
2022-10-09T22:53:47.635Z,100971.81
2022-10-09T22:56:25.178Z,100970.13
2022-10-09T22:58:53.133Z,100962.38
2022-10-09T23:01:27.120Z,100968.59
2022-10-09T23:03:53.501Z,100964.34
2022-10-09T23:06:20.190Z,100965.38
2022-10-09T23:08:48.580Z,100950.41
2022-10-09T23:11:16.967Z,100951.56
2022-10-09T23:13:44.005Z,100950.88
2022-10-09T23:16:12.128Z,100949.00
2022-10-09T23:18:38.991Z,100947.50
2022-10-09T23:21:08.263Z,100941.28
2022-10-09T23:23:35.114Z,100940.59
2022-10-09T23:26:06.319Z,100938.91
2022-10-09T23:28:33.420Z,100934.69
2022-10-09T23:31:10.795Z,100935.53
2022-10-09T23:33:45.055Z,100926.78
2022-10-09T23:36:14.060Z,100929.66
2022-10-09T23:38:40.790Z,100926.25
2022-10-09T23:41:10.570Z,100914.69
2022-10-09T23:43:38.603Z,100920.19
2022-10-09T23:46:07.415Z,100904.25
2022-10-09T23:48:34.224Z,100906.25
2022-10-09T23:51:00.647Z,100903.72
2022-10-09T23:53:27.331Z,100901.19
2022-10-09T23:55:54.414Z,100901.53
2022-10-09T23:58:21.937Z,100898.84
